Forest Grove, Minnesota
Current Conditions -  °F | °C
As of 12:31 AM on Thursday 27 Nov 2014 (Local Time) from KVWU Reporting Station
Clear Clear  
Wind Chill: -9°   Ceiling: Unl
Heat Index: -9°   Visibility: 10mi
Dew Point: -13°   Wind: 0mph
Humidity: 84%   Direction: NA
Pressure: 30.46"   Gusts: NA
Location:  47.9892°N, 94.2138°W
Report Text: KVWU 270631Z AUTO 00000KT 10SM CLR M23/M25 A3046 RMK AO2
Loading
Personal Weather Stations






























Interactive Weather Map New forecast layout! Learn more

10-Day Weather Forecast

Advertisements
Track Severe Weather on mobile